Time;durP1;ratioP1;P1;durP2;ratioP2;P2;SDS_P1;SDS_P2;PMS_P1;PMS_P2;Temp;Humidity;BMP_temperature;BMP_pressure;BME280_temperature;BME280_humidity;BME280_pressure;Samples;Min_cycle;Max_cycle;Signal;HPM_P1;HPM_P2
2022/08/04 00:00:22;;;;;;;9.50;3.13;;;19.90;99.90;;;;;;5025406;28;20099;-74
2022/08/04 00:03:03;;;;;;;4.28;3.20;;;19.50;99.90;;;;;;5023567;28;20479;-73
2022/08/04 00:05:32;;;;;;;10.07;3.35;;;19.10;99.90;;;;;;5024519;28;20505;-73
2022/08/04 00:08:03;;;;;;;8.68;3.33;;;18.80;99.90;;;;;;5024054;28;20034;-72
2022/08/04 00:10:30;;;;;;;4.65;3.55;;;18.70;99.90;;;;;;5025612;28;20179;-74
2022/08/04 00:12:58;;;;;;;7.15;3.67;;;18.60;99.90;;;;;;5023549;28;20667;-73
2022/08/04 00:15:25;;;;;;;7.18;3.30;;;18.30;99.90;;;;;;5025512;28;20048;-72
2022/08/04 00:18:06;;;;;;;4.30;3.25;;;18.20;99.90;;;;;;5025701;28;20045;-75
2022/08/04 00:20:33;;;;;;;7.80;3.25;;;18.20;99.90;;;;;;5023164;28;20114;-73
2022/08/04 00:23:00;;;;;;;5.97;3.10;;;18.20;99.90;;;;;;5022316;28;20037;-73
2022/08/04 00:25:26;;;;;;;7.25;3.50;;;18.30;99.90;;;;;;5022728;28;20388;-74
2022/08/04 00:27:53;;;;;;;10.93;3.10;;;18.20;99.90;;;;;;5026325;28;20072;-73
2022/08/04 00:30:19;;;;;;;4.93;3.20;;;18.20;99.90;;;;;;5024063;28;20025;-74
2022/08/04 00:32:46;;;;;;;11.18;3.70;;;18.10;99.90;;;;;;5022481;28;20105;-74
2022/08/04 00:35:15;;;;;;;5.57;3.08;;;18.10;99.90;;;;;;5025755;28;20373;-74
2022/08/04 00:37:44;;;;;;;10.40;3.30;;;18.50;99.90;;;;;;5020090;28;20042;-75
2022/08/04 00:40:54;;;;;;;5.00;3.33;;;18.70;99.90;;;;;;5022728;28;20076;-73
2022/08/04 00:44:05;;;;;;;4.32;3.00;;;18.70;99.90;;;;;;4985307;28;20033;-73
2022/08/04 00:46:41;;;;;;;5.35;3.80;;;18.60;99.90;;;;;;4966181;28;20039;-72
2022/08/04 00:49:16;;;;;;;5.43;3.10;;;18.60;99.90;;;;;;5025490;28;20049;-74
2022/08/04 00:52:26;;;;;;;4.63;3.28;;;18.60;99.90;;;;;;5028379;28;20793;-74
2022/08/04 00:55:29;;;;;;;4.70;3.10;;;18.50;99.90;;;;;;5016566;28;20061;-74
2022/08/04 00:58:05;;;;;;;5.47;3.10;;;18.50;99.90;;;;;;5009117;28;20054;-73
2022/08/04 01:00:43;;;;;;;9.50;2.95;;;18.70;99.90;;;;;;5026527;28;20021;-73
2022/08/04 01:03:17;;;;;;;6.28;2.42;;;18.90;99.90;;;;;;5015955;28;20032;-74
2022/08/04 01:06:12;;;;;;;4.50;3.17;;;19.40;99.90;;;;;;5026401;28;20038;-74
2022/08/04 01:08:37;;;;;;;4.28;3.00;;;19.70;99.90;;;;;;5028344;28;20029;-75
2022/08/04 01:11:17;;;;;;;3.45;3.05;;;19.40;99.90;;;;;;5028497;28;20040;-73
2022/08/04 01:13:58;;;;;;;5.40;3.27;;;19.10;99.90;;;;;;5022544;28;20038;-73
2022/08/04 01:16:30;;;;;;;6.18;3.60;;;18.70;99.90;;;;;;5023752;28;20378;-73
2022/08/04 01:18:59;;;;;;;5.38;3.47;;;18.70;99.90;;;;;;5026945;28;20542;-72
2022/08/04 01:21:28;;;;;;;6.53;3.83;;;18.60;99.90;;;;;;5008998;28;20026;-73
2022/08/04 01:24:11;;;;;;;5.88;3.08;;;18.50;99.90;;;;;;5018341;28;20026;-74
2022/08/04 01:27:19;;;;;;;4.78;3.25;;;18.60;99.90;;;;;;5027281;28;20040;-74
2022/08/04 01:29:56;;;;;;;4.13;3.25;;;18.60;99.90;;;;;;5027575;28;20036;-74
2022/08/04 01:32:35;;;;;;;4.30;2.95;;;18.60;99.90;;;;;;5027047;28;20113;-73
2022/08/04 01:35:09;;;;;;;8.00;3.70;;;18.60;99.90;;;;;;5027508;28;20041;-75
2022/08/04 01:37:58;;;;;;;4.85;3.30;;;18.60;99.90;;;;;;5027209;28;20057;-73
2022/08/04 01:40:26;;;;;;;5.72;3.38;;;18.50;99.90;;;;;;5015961;28;20041;-73
2022/08/04 01:42:53;;;;;;;5.72;3.40;;;18.40;99.90;;;;;;5024657;28;20125;-74
2022/08/04 01:45:18;;;;;;;6.07;3.35;;;18.50;99.90;;;;;;5025578;28;20383;-74
2022/08/04 01:47:53;;;;;;;6.40;3.03;;;18.50;99.90;;;;;;5024343;28;20041;-73
2022/08/04 01:50:20;;;;;;;4.30;3.15;;;18.50;99.90;;;;;;5023638;28;21734;-75
2022/08/04 01:52:46;;;;;;;5.85;3.17;;;18.50;99.90;;;;;;5023949;28;20497;-74
2022/08/04 01:55:13;;;;;;;5.55;3.53;;;18.40;99.90;;;;;;5025794;28;20042;-73
2022/08/04 01:57:44;;;;;;;5.95;3.30;;;18.40;99.90;;;;;;5024893;28;20029;-73
2022/08/04 02:00:18;;;;;;;5.45;3.78;;;18.30;99.90;;;;;;5027498;28;20502;-74
2022/08/04 02:02:45;;;;;;;5.00;3.40;;;18.20;99.90;;;;;;5027231;28;20045;-74
2022/08/04 02:05:14;;;;;;;4.32;3.10;;;18.00;99.90;;;;;;5027299;28;20034;-73
2022/08/04 02:07:48;;;;;;;8.65;3.30;;;17.80;99.90;;;;;;5029706;28;20060;-74
2022/08/04 02:10:34;;;;;;;7.13;3.35;;;17.80;99.90;;;;;;5024000;28;20036;-73
2022/08/04 02:13:21;;;;;;;8.25;3.42;;;17.80;99.90;;;;;;5020721;28;20029;-74
2022/08/04 02:16:06;;;;;;;5.88;3.50;;;17.70;99.90;;;;;;5028067;28;20423;-74
2022/08/04 02:19:10;;;;;;;5.22;3.63;;;17.70;99.90;;;;;;5028945;28;20077;-72
2022/08/04 02:21:39;;;;;;;4.90;3.13;;;17.70;99.90;;;;;;5024516;28;20065;-73
2022/08/04 02:24:07;;;;;;;6.68;3.75;;;17.70;99.90;;;;;;5025143;28;20038;-73
2022/08/04 02:26:34;;;;;;;5.47;3.42;;;17.70;99.90;;;;;;5025621;28;20041;-74
2022/08/04 02:29:19;;;;;;;6.65;3.50;;;17.70;99.90;;;;;;5026391;28;20026;-74
2022/08/04 02:31:55;;;;;;;6.70;3.78;;;17.70;99.90;;;;;;5029548;28;20112;-72
2022/08/04 02:34:59;;;;;;;5.72;3.75;;;17.60;99.90;;;;;;5030978;28;20190;-74
2022/08/04 02:37:25;;;;;;;9.85;3.80;;;17.60;99.90;;;;;;5028100;28;20099;-74
2022/08/04 02:39:52;;;;;;;9.68;3.83;;;17.40;99.90;;;;;;5025962;28;20021;-74
2022/08/04 02:42:19;;;;;;;4.65;3.53;;;17.40;99.90;;;;;;5027930;28;20036;-74
2022/08/04 02:44:49;;;;;;;10.15;3.50;;;17.40;99.90;;;;;;5027144;28;20029;-74
2022/08/04 02:47:19;;;;;;;;;;;17.40;99.90;;;;;;5028100;28;20029;-74
2022/08/04 02:49:46;;;;;;;7.85;4.00;;;17.30;99.90;;;;;;5027149;28;19956;-74
2022/08/04 02:52:12;;;;;;;4.90;3.72;;;17.10;99.90;;;;;;5027469;28;20022;-74
2022/08/04 02:54:41;;;;;;;5.20;3.78;;;17.10;99.90;;;;;;5027563;28;20041;-73
2022/08/04 02:57:17;;;;;;;8.40;4.00;;;17.20;99.90;;;;;;5027703;28;20482;-74
2022/08/04 03:00:18;;;;;;;7.47;4.53;;;17.20;99.90;;;;;;5025302;28;20037;-73
2022/08/04 03:03:05;;;;;;;5.75;3.75;;;17.30;99.90;;;;;;4981948;28;20483;-74
2022/08/04 03:06:02;;;;;;;5.90;3.95;;;17.10;99.90;;;;;;5024509;28;20385;-75
2022/08/04 03:09:09;;;;;;;8.13;4.00;;;17.10;99.90;;;;;;5021658;28;20037;-74
2022/08/04 03:12:08;;;;;;;6.38;3.78;;;17.10;99.90;;;;;;5025782;28;20471;-72
2022/08/04 03:15:01;;;;;;;7.93;3.90;;;17.10;99.90;;;;;;5020931;28;20037;-71
2022/08/04 03:18:04;;;;;;;8.63;4.10;;;17.10;99.90;;;;;;5025576;28;21200;-74
2022/08/04 03:20:43;;;;;;;5.40;3.83;;;17.00;99.90;;;;;;5023739;28;20030;-74
2022/08/04 03:23:37;;;;;;;8.70;3.85;;;17.10;99.90;;;;;;5025442;28;20029;-72
2022/08/04 03:26:45;;;;;;;9.00;3.72;;;17.10;99.90;;;;;;5025704;28;20044;-73
2022/08/04 03:29:44;;;;;;;5.20;3.70;;;17.10;99.90;;;;;;5010466;28;20068;-73
2022/08/04 03:32:43;;;;;;;5.97;4.00;;;17.00;99.90;;;;;;5022383;28;20108;-74
2022/08/04 03:35:46;;;;;;;5.38;3.80;;;17.00;99.90;;;;;;5019994;28;20072;-73
2022/08/04 03:38:27;;;;;;;5.22;3.95;;;17.10;99.90;;;;;;5028859;28;20144;-73
2022/08/04 03:41:04;;;;;;;7.47;3.97;;;17.10;99.90;;;;;;5027631;28;20041;-73
2022/08/04 03:43:47;;;;;;;5.30;3.70;;;17.00;99.90;;;;;;5019814;28;20032;-73
2022/08/04 03:46:32;;;;;;;5.85;4.05;;;16.90;99.90;;;;;;5028244;28;20117;-74
2022/08/04 03:49:26;;;;;;;5.57;3.80;;;16.80;99.90;;;;;;5027814;28;20041;-73
2022/08/04 03:55:29;;;;;;;6.30;3.97;;;16.80;99.90;;;;;;5029956;28;20091;-75
2022/08/04 03:58:13;;;;;;;6.30;4.15;;;16.70;99.90;;;;;;5028923;28;20032;-74
2022/08/04 04:00:41;;;;;;;8.73;4.38;;;16.70;99.90;;;;;;5026420;28;20519;-73
2022/08/04 04:03:37;;;;;;;5.90;3.80;;;16.70;99.90;;;;;;5027416;28;20033;-72
2022/08/04 04:06:33;;;;;;;6.88;4.00;;;16.70;99.90;;;;;;5023640;28;20462;-73
2022/08/04 04:09:09;;;;;;;7.57;4.47;;;16.70;99.90;;;;;;5027818;28;20061;-73
2022/08/04 04:11:43;;;;;;;9.38;4.07;;;16.70;99.90;;;;;;5029876;28;20026;-74
2022/08/04 04:14:21;;;;;;;5.00;3.90;;;16.80;99.90;;;;;;5028314;28;20067;-73
2022/08/04 04:16:49;;;;;;;6.20;4.07;;;16.90;99.90;;;;;;5026170;28;20037;-72
2022/08/04 04:19:45;;;;;;;5.25;3.90;;;17.00;99.90;;;;;;5027800;28;20049;-73
2022/08/04 04:22:44;;;;;;;8.43;3.78;;;17.00;99.90;;;;;;5024589;28;20163;-73
2022/08/04 04:25:35;;;;;;;5.07;3.55;;;16.90;99.90;;;;;;5027808;28;20435;-72
2022/08/04 04:28:09;;;;;;;8.40;3.70;;;16.80;99.90;;;;;;5017780;28;20107;-73
2022/08/04 04:31:06;;;;;;;6.88;3.70;;;16.90;99.90;;;;;;5026504;28;20064;-73
2022/08/04 04:33:37;;;;;;;6.75;3.47;;;16.90;99.90;;;;;;5021240;28;20029;-73
2022/08/04 04:36:10;;;;;;;5.68;3.92;;;17.00;99.90;;;;;;5023739;28;20033;-74
2022/08/04 04:38:39;;;;;;;7.68;4.18;;;17.20;99.90;;;;;;5028099;28;20522;-71
2022/08/04 04:41:22;;;;;;;6.07;3.83;;;17.50;99.90;;;;;;5027188;28;20061;-72
2022/08/04 04:44:12;;;;;;;7.20;3.63;;;17.60;99.90;;;;;;5025774;28;20045;-72
2022/08/04 04:46:55;;;;;;;5.00;3.60;;;17.70;99.90;;;;;;5021738;28;20037;-72
2022/08/04 04:50:02;;;;;;;4.70;3.67;;;17.80;99.90;;;;;;5012450;28;20045;-72
2022/08/04 04:52:56;;;;;;;5.97;3.80;;;17.90;99.90;;;;;;5020178;28;20136;-72
2022/08/04 04:55:29;;;;;;;8.20;3.60;;;18.20;99.90;;;;;;5022513;28;20045;-72
2022/08/04 04:57:59;;;;;;;6.45;3.58;;;18.30;99.90;;;;;;5027163;28;20087;-72
2022/08/04 05:01:05;;;;;;;5.20;3.50;;;18.40;99.90;;;;;;5018412;28;20069;-72
2022/08/04 05:03:59;;;;;;;5.70;3.72;;;18.60;99.90;;;;;;5011516;28;20112;-72
2022/08/04 05:06:57;;;;;;;6.85;3.85;;;18.80;99.90;;;;;;5028046;28;20057;-73
2022/08/04 05:09:34;;;;;;;5.82;4.00;;;18.90;99.90;;;;;;5016814;28;20040;-73
2022/08/04 05:12:24;;;;;;;7.15;4.20;;;19.00;99.90;;;;;;5027349;28;20045;-72
2022/08/04 05:14:52;;;;;;;6.13;3.53;;;19.00;99.90;;;;;;5027365;28;20099;-73
2022/08/04 05:17:24;;;;;;;5.95;3.88;;;19.00;99.90;;;;;;5029015;28;20137;-73
2022/08/04 05:20:17;;;;;;;7.53;3.72;;;19.10;99.90;;;;;;5027246;28;20040;-73
2022/08/04 05:22:50;;;;;;;5.47;3.75;;;19.10;99.90;;;;;;5027069;28;20108;-71
2022/08/04 05:25:22;;;;;;;4.80;3.80;;;19.20;99.90;;;;;;5028978;28;20375;-72
2022/08/04 05:28:02;;;;;;;6.22;3.95;;;19.40;99.90;;;;;;5027466;28;20040;-73
2022/08/04 05:30:33;;;;;;;5.50;4.13;;;19.50;99.90;;;;;;5028755;28;20087;-72
2022/08/04 05:33:03;;;;;;;4.45;3.80;;;19.70;99.90;;;;;;5026539;28;20049;-71
2022/08/04 05:35:42;;;;;;;9.13;4.03;;;19.80;99.90;;;;;;5026541;28;20863;-73
2022/08/04 05:38:13;;;;;;;17.63;4.43;;;20.00;99.90;;;;;;5027875;28;20042;-73
2022/08/04 05:40:39;;;;;;;4.88;3.50;;;20.10;99.90;;;;;;5026779;28;20052;-73
2022/08/04 05:43:06;;;;;;;8.35;3.80;;;20.20;99.90;;;;;;5031096;28;20092;-72
2022/08/04 05:45:34;;;;;;;9.82;4.38;;;20.30;99.90;;;;;;5027989;28;20030;-71
2022/08/04 05:48:05;;;;;;;15.35;3.90;;;20.20;99.90;;;;;;5027476;28;20040;-73
2022/08/04 05:50:32;;;;;;;6.28;3.80;;;20.20;99.90;;;;;;5031183;28;20036;-72
2022/08/04 05:52:59;;;;;;;9.38;4.05;;;20.10;99.90;;;;;;5031510;28;20029;-72
2022/08/04 05:55:28;;;;;;;5.93;3.80;;;20.10;99.90;;;;;;5029154;28;20510;-70
2022/08/04 05:57:55;;;;;;;6.15;3.78;;;20.30;99.90;;;;;;5030156;28;20060;-72
2022/08/04 06:00:23;;;;;;;5.07;3.55;;;20.50;99.90;;;;;;5030826;28;20112;-72
2022/08/04 06:02:51;;;;;;;5.85;3.90;;;20.70;99.90;;;;;;5028323;28;20033;-72
2022/08/04 06:05:18;;;;;;;8.68;4.13;;;20.80;99.90;;;;;;5030002;28;20041;-72
2022/08/04 06:07:44;;;;;;;4.68;3.70;;;21.00;99.90;;;;;;5030477;28;20091;-71
2022/08/04 06:10:10;;;;;;;6.40;4.00;;;21.30;99.90;;;;;;5030726;28;20033;-72
2022/08/04 06:12:43;;;;;;;7.55;4.13;;;21.40;99.90;;;;;;5031338;28;20045;-73
2022/08/04 06:15:13;;;;;;;6.65;4.50;;;21.50;99.90;;;;;;5028817;28;20164;-73
2022/08/04 06:17:51;;;;;;;7.15;3.85;;;21.70;99.90;;;;;;5031327;28;20794;-72
2022/08/04 06:20:19;;;;;;;6.50;4.43;;;21.80;99.90;;;;;;5024105;28;20052;-71
2022/08/04 06:22:51;;;;;;;5.50;3.70;;;22.10;99.90;;;;;;5030361;28;20022;-72
2022/08/04 06:25:21;;;;;;;5.55;3.97;;;22.20;99.90;;;;;;5029116;28;20061;-72
2022/08/04 06:27:48;;;;;;;6.07;3.67;;;22.40;99.90;;;;;;5030921;28;20108;-71
2022/08/04 06:30:15;;;;;;;4.40;3.75;;;22.50;99.90;;;;;;5030600;28;20045;-72
2022/08/04 06:33:23;;;;;;;5.10;3.63;;;22.80;99.90;;;;;;5028872;28;20025;-72
2022/08/04 06:35:34;;;;;;;6.85;4.00;;;23.10;99.90;;;;;;5024999;28;20136;-72
2022/08/04 06:38:02;;;;;;;8.15;4.22;;;23.40;99.90;;;;;;5029188;28;20148;-72
2022/08/04 06:40:28;;;;;;;6.45;3.95;;;23.70;99.90;;;;;;5028846;28;20144;-71
2022/08/04 06:42:55;;;;;;;4.78;3.60;;;24.00;99.90;;;;;;5029871;28;20037;-73
2022/08/04 06:45:21;;;;;;;16.80;3.63;;;24.20;99.90;;;;;;5030269;28;20467;-72
2022/08/04 06:47:48;;;;;;;24.63;3.80;;;24.40;99.90;;;;;;5026244;28;20565;-72
2022/08/04 06:50:15;;;;;;;7.43;3.25;;;24.50;99.90;;;;;;5028462;28;20021;-73
2022/08/04 06:52:43;;;;;;;8.73;3.50;;;24.70;99.90;;;;;;5015389;28;20033;-72
2022/08/04 06:55:09;;;;;;;8.45;3.83;;;24.90;99.90;;;;;;5027556;28;20073;-71
2022/08/04 06:57:36;;;;;;;11.85;3.85;;;25.20;99.90;;;;;;5030284;28;20026;-70
2022/08/04 07:00:12;;;;;;;4.05;3.00;;;25.50;99.90;;;;;;5029558;28;20038;-72
2022/08/04 07:02:42;;;;;;;9.65;3.47;;;25.70;99.90;;;;;;5023352;28;20056;-72
2022/08/04 07:05:10;;;;;;;8.13;3.00;;;26.00;99.00;;;;;;5026989;28;20510;-71
2022/08/04 07:07:36;;;;;;;5.25;3.20;;;26.20;96.90;;;;;;5029719;28;20498;-73
2022/08/04 07:10:03;;;;;;;10.00;3.38;;;26.50;95.90;;;;;;5026694;28;20497;-73
2022/08/04 07:12:30;;;;;;;5.65;3.30;;;26.70;95.50;;;;;;5030355;28;20094;-72
2022/08/04 07:14:57;;;;;;;9.32;3.25;;;26.90;94.40;;;;;;5027278;28;20049;-72
2022/08/04 07:17:24;;;;;;;13.18;3.45;;;27.10;94.30;;;;;;5028557;28;20052;-72
2022/08/04 07:19:51;;;;;;;7.18;3.28;;;27.30;93.10;;;;;;5028238;28;20480;-72
2022/08/04 07:22:18;;;;;;;6.05;2.97;;;27.40;92.10;;;;;;5030938;28;20029;-71
2022/08/04 07:24:44;;;;;;;5.90;2.90;;;27.50;90.90;;;;;;5027750;28;20657;-72
2022/08/04 07:27:09;;;;;;;6.15;2.92;;;27.80;89.20;;;;;;5022130;28;20030;-72
2022/08/04 07:29:36;;;;;;;4.78;3.13;;;27.90;87.70;;;;;;5028639;28;20027;-70
2022/08/04 07:32:05;;;;;;;3.88;2.83;;;28.00;87.60;;;;;;5027811;28;20116;-71
2022/08/04 07:34:32;;;;;;;7.73;3.27;;;28.20;84.10;;;;;;5027252;28;20045;-73
2022/08/04 07:36:59;;;;;;;4.53;2.78;;;28.40;83.90;;;;;;5027950;28;20491;-72
2022/08/04 07:39:27;;;;;;;7.07;3.03;;;28.50;83.40;;;;;;5028373;28;20104;-71
2022/08/04 07:41:54;;;;;;;3.97;2.78;;;28.70;81.50;;;;;;5027283;28;20037;-71
2022/08/04 07:44:20;;;;;;;5.28;2.78;;;28.80;77.70;;;;;;5028311;28;20033;-72
2022/08/04 07:46:46;;;;;;;4.15;2.67;;;28.80;79.60;;;;;;5024081;28;20490;-71
2022/08/04 07:49:12;;;;;;;3.55;2.58;;;29.00;80.00;;;;;;5028284;28;20038;-72
2022/08/04 07:51:38;;;;;;;3.50;2.53;;;29.00;75.30;;;;;;5028515;28;20037;-72
2022/08/04 07:54:06;;;;;;;5.20;2.47;;;29.20;74.00;;;;;;5026959;28;20365;-72
2022/08/04 07:56:36;;;;;;;5.05;2.83;;;29.20;72.60;;;;;;5029109;28;20061;-71
2022/08/04 07:59:03;;;;;;;4.20;2.50;;;29.40;74.50;;;;;;5028654;28;20112;-72
2022/08/04 08:01:29;;;;;;;8.20;2.85;;;29.60;74.00;;;;;;5028227;28;20041;-69
2022/08/04 08:03:57;;;;;;;3.67;2.60;;;29.60;69.90;;;;;;5025151;28;20112;-73
2022/08/04 08:06:24;;;;;;;3.22;2.50;;;29.50;67.40;;;;;;5025418;28;20037;-72
2022/08/04 08:08:50;;;;;;;3.20;2.53;;;29.60;69.80;;;;;;5025896;28;20106;-74
2022/08/04 08:11:16;;;;;;;3.22;2.55;;;29.60;69.00;;;;;;5026027;28;20104;-72
2022/08/04 08:13:45;;;;;;;3.45;2.88;;;29.70;68.70;;;;;;5027613;28;20388;-72
2022/08/04 08:16:13;;;;;;;2.42;2.20;;;30.00;66.90;;;;;;5027209;28;20049;-72
2022/08/04 08:18:39;;;;;;;4.18;2.45;;;30.20;66.20;;;;;;5029007;28;20072;-72
2022/08/04 08:21:06;;;;;;;3.58;2.47;;;30.30;65.60;;;;;;5027970;28;20472;-73
2022/08/04 08:23:34;;;;;;;2.95;2.33;;;30.50;66.50;;;;;;5028830;28;20040;-73
2022/08/04 08:26:00;;;;;;;3.13;2.40;;;30.70;63.50;;;;;;5026298;28;20068;-72
2022/08/04 08:28:25;;;;;;;6.05;2.20;;;30.70;61.10;;;;;;5029741;28;20057;-72
2022/08/04 08:30:51;;;;;;;3.33;2.30;;;30.70;60.50;;;;;;5028049;28;20044;-72
2022/08/04 08:33:18;;;;;;;9.07;2.85;;;30.80;60.60;;;;;;5028075;28;20030;-72
2022/08/04 08:36:14;;;;;;;2.85;2.25;;;30.90;60.00;;;;;;5028585;28;20121;-72
2022/08/04 08:38:47;;;;;;;3.10;2.20;;;31.10;58.80;;;;;;5028561;28;20029;-72
2022/08/04 08:41:15;;;;;;;5.57;2.30;;;31.20;58.00;;;;;;5017063;28;20032;-73
2022/08/04 08:44:02;;;;;;;2.42;1.83;;;31.20;57.40;;;;;;5027903;28;20033;-72
2022/08/04 08:46:53;;;;;;;2.97;2.08;;;31.20;56.00;;;;;;5009142;28;20042;-73
2022/08/04 08:49:43;;;;;;;2.83;1.95;;;31.40;55.60;;;;;;5015761;28;20658;-73
2022/08/04 08:52:35;;;;;;;3.60;1.90;;;31.60;54.70;;;;;;5026839;28;20037;-72
2022/08/04 08:55:20;;;;;;;4.68;2.20;;;31.70;53.40;;;;;;5010233;28;20053;-73
2022/08/04 08:58:04;;;;;;;5.72;2.20;;;31.90;52.60;;;;;;5026811;28;20029;-74
2022/08/04 09:01:01;;;;;;;3.65;1.90;;;31.90;51.00;;;;;;5029348;28;20032;-72
2022/08/04 09:03:56;;;;;;;10.27;2.05;;;31.90;52.50;;;;;;5026816;28;20041;-72
2022/08/04 09:19:33;;;;;;;6.10;1.90;;;31.90;52.80;;;;;;5107083;27;20376;-60
2022/08/04 09:22:27;;;;;;;5.95;2.10;;;33.00;49.40;;;;;;5109120;28;20028;-60
2022/08/04 09:25:17;;;;;;;8.93;2.00;;;33.00;48.70;;;;;;5079266;28;20044;-61
2022/08/04 09:28:06;;;;;;;4.72;1.90;;;33.10;48.30;;;;;;5102441;28;20084;-61
2022/08/04 09:30:47;;;;;;;2.03;1.67;;;33.30;48.50;;;;;;5091410;28;20028;-61
2022/08/04 09:33:22;;;;;;;3.60;1.77;;;33.40;47.00;;;;;;5095866;28;20743;-60
2022/08/04 09:35:56;;;;;;;6.43;1.60;;;33.50;45.40;;;;;;5086453;28;20032;-61
2022/08/04 09:38:52;;;;;;;2.10;1.52;;;33.30;43.60;;;;;;5089048;28;20051;-61
2022/08/04 09:41:40;;;;;;;2.92;1.92;;;33.30;45.00;;;;;;5087920;28;20032;-61
2022/08/04 09:44:39;;;;;;;8.43;1.95;;;33.40;43.90;;;;;;5103266;28;20050;-61
2022/08/04 09:47:31;;;;;;;2.97;1.80;;;33.60;46.40;;;;;;5086288;28;20036;-61
2022/08/04 09:50:15;;;;;;;5.38;1.80;;;33.80;45.40;;;;;;5087549;28;20036;-61
2022/08/04 09:52:55;;;;;;;4.28;1.85;;;34.10;44.80;;;;;;5090958;28;20040;-61
2022/08/04 09:55:20;;;;;;;;;;;34.00;43.50;;;;;;5097257;28;20677;-61
2022/08/04 09:58:02;;;;;;;2.28;1.90;;;33.90;43.80;;;;;;5085735;28;19912;-61
2022/08/04 10:00:35;;;;;;;3.42;2.00;;;34.00;44.40;;;;;;5103423;28;20023;-60
2022/08/04 10:03:01;;;;;;;2.95;2.20;;;34.20;46.20;;;;;;5102782;28;20110;-61
2022/08/04 10:06:15;;;;;;;2.88;2.13;;;34.30;44.30;;;;;;5106221;28;20724;-61
2022/08/04 10:09:18;;;;;;;3.28;2.20;;;34.40;44.70;;;;;;5032734;28;20041;-61
2022/08/04 10:12:02;;;;;;;4.93;2.80;;;34.30;47.10;;;;;;5098141;28;20633;-63
2022/08/04 10:14:40;;;;;;;4.18;2.50;;;34.20;45.60;;;;;;5104370;28;20062;-60
2022/08/04 10:17:15;;;;;;;3.33;2.50;;;33.90;48.70;;;;;;5099051;28;20052;-60
2022/08/04 10:19:41;;;;;;;2.35;2.15;;;33.80;47.10;;;;;;5086709;28;20024;-61
2022/08/04 10:22:30;;;;;;;2.65;2.45;;;34.00;46.90;;;;;;5091704;28;20167;-60
2022/08/04 10:25:23;;;;;;;2.42;2.22;;;34.10;45.80;;;;;;5086868;28;20036;-61
2022/08/04 10:27:57;;;;;;;2.65;2.45;;;34.30;44.10;;;;;;5089379;28;20598;-61
2022/08/04 10:30:24;;;;;;;7.55;2.47;;;34.60;44.10;;;;;;5080971;28;20064;-61
2022/08/04 10:33:05;;;;;;;3.00;2.70;;;34.90;46.00;;;;;;5091886;28;20089;-61
2022/08/04 10:35:43;;;;;;;8.40;2.47;;;34.80;45.30;;;;;;5085263;28;20085;-61
2022/08/04 10:38:29;;;;;;;3.10;2.60;;;34.70;45.30;;;;;;5077841;28;20628;-61
2022/08/04 10:41:10;;;;;;;4.68;2.35;;;34.70;45.80;;;;;;5078700;28;20059;-61
2022/08/04 10:43:38;;;;;;;3.72;2.58;;;34.70;46.60;;;;;;5086064;28;20427;-61
2022/08/04 10:46:15;;;;;;;3.75;2.95;;;35.10;46.20;;;;;;5087109;28;20040;-63
2022/08/04 10:48:57;;;;;;;3.80;2.45;;;35.10;45.40;;;;;;5081859;28;20044;-61
2022/08/04 10:51:26;;;;;;;4.85;2.70;;;35.40;46.50;;;;;;5082854;28;20380;-61
2022/08/04 10:54:01;;;;;;;3.97;2.65;;;35.30;42.90;;;;;;5083355;28;20166;-60
2022/08/04 10:56:52;;;;;;;3.05;2.70;;;34.90;43.70;;;;;;5079355;28;20031;-61
2022/08/04 10:59:32;;;;;;;3.38;2.67;;;34.70;45.20;;;;;;5084400;28;20028;-61
2022/08/04 11:02:03;;;;;;;;;;;35.00;45.50;;;;;;5082268;28;20100;-62
2022/08/04 11:04:46;;;;;;;4.60;2.90;;;35.10;44.70;;;;;;5089146;28;19940;-62
2022/08/04 11:07:14;;;;;;;6.50;3.47;;;35.00;45.00;;;;;;5090810;28;20035;-61
2022/08/04 11:09:42;;;;;;;5.45;2.80;;;34.60;45.70;;;;;;5084929;28;20039;-61
2022/08/04 11:12:18;;;;;;;7.35;3.33;;;34.60;44.80;;;;;;5082685;28;20032;-61
2022/08/04 11:15:19;;;;;;;4.13;2.80;;;35.00;46.10;;;;;;5085186;28;20032;-61
2022/08/04 11:17:59;;;;;;;3.40;3.05;;;35.10;43.20;;;;;;5087845;28;20040;-61
2022/08/04 11:20:49;;;;;;;4.07;2.45;;;35.30;44.10;;;;;;5078500;28;20035;-61
2022/08/04 11:23:16;;;;;;;;;;;35.40;44.40;;;;;;5088749;28;20032;-61
2022/08/04 11:26:10;;;;;;;2.85;2.55;;;35.40;43.10;;;;;;5080049;28;19908;-61
2022/08/04 11:28:50;;;;;;;2.72;2.53;;;35.70;42.90;;;;;;5061120;28;20066;-62
2022/08/04 11:31:25;;;;;;;;;;;36.00;43.10;;;;;;5086430;28;20028;-61
2022/08/04 11:34:05;;;;;;;3.45;2.67;;;36.20;43.00;;;;;;5083577;28;20157;-61
2022/08/04 11:36:57;;;;;;;2.90;2.60;;;36.10;45.30;;;;;;5087716;28;20043;-62
2022/08/04 11:39:47;;;;;;;4.35;2.85;;;35.80;43.10;;;;;;5084350;28;20037;-60
2022/08/04 11:42:21;;;;;;;3.63;3.25;;;35.30;44.10;;;;;;5077835;28;20085;-60
2022/08/04 11:44:49;;;;;;;5.57;2.92;;;35.20;44.30;;;;;;5076657;28;20385;-60
2022/08/04 11:47:38;;;;;;;3.42;2.55;;;35.40;44.80;;;;;;5072898;28;20039;-60
2022/08/04 11:50:28;;;;;;;12.63;2.85;;;35.70;42.50;;;;;;5075832;28;20095;-61
2022/08/04 11:52:55;;;;;;;6.75;3.53;;;36.10;46.30;;;;;;5083181;28;20048;-61
2022/08/04 11:55:24;;;;;;;6.47;2.88;;;36.00;43.30;;;;;;5089637;28;20051;-61
2022/08/04 11:57:50;;;;;;;3.00;2.70;;;35.80;43.90;;;;;;5081345;28;20040;-61
2022/08/04 12:00:18;;;;;;;6.60;2.60;;;35.70;41.00;;;;;;5088137;28;20082;-60
2022/08/04 12:03:21;;;;;;;3.42;2.67;;;35.70;40.20;;;;;;5083747;28;20764;-62
2022/08/04 12:06:20;;;;;;;4.88;3.00;;;36.20;41.80;;;;;;5090077;28;20032;-62
2022/08/04 12:09:22;;;;;;;7.90;2.90;;;36.70;42.80;;;;;;5034815;28;20435;-61
2022/08/04 12:12:19;;;;;;;6.25;3.47;;;36.70;42.10;;;;;;5049528;28;20083;-62
2022/08/04 12:15:02;;;;;;;3.50;2.90;;;36.70;40.70;;;;;;5076531;28;20027;-61
2022/08/04 12:17:39;;;;;;;6.10;3.40;;;36.20;41.50;;;;;;5085194;28;20071;-62
2022/08/04 12:20:09;;;;;;;4.25;3.50;;;35.90;44.10;;;;;;5083163;28;20060;-61
2022/08/04 12:22:40;;;;;;;7.65;3.67;;;35.70;44.30;;;;;;5092323;28;20032;-61
2022/08/04 12:25:15;;;;;;;3.72;3.28;;;35.90;43.60;;;;;;5086206;28;20040;-61
2022/08/04 12:27:50;;;;;;;6.25;3.47;;;35.80;41.50;;;;;;5086727;28;20031;-61
2022/08/04 12:30:18;;;;;;;3.78;3.38;;;35.30;42.30;;;;;;5088825;28;20082;-61
2022/08/04 12:33:00;;;;;;;7.28;3.15;;;34.90;44.70;;;;;;5087403;28;20028;-61
2022/08/04 12:35:37;;;;;;;6.43;3.50;;;35.00;42.90;;;;;;5081504;28;20062;-61
2022/08/04 12:38:11;;;;;;;5.80;3.20;;;34.80;43.00;;;;;;5077963;28;20470;-61
2022/08/04 12:40:47;;;;;;;4.25;3.10;;;34.70;44.50;;;;;;5081875;28;20022;-61
2022/08/04 12:43:38;;;;;;;3.90;3.50;;;34.80;45.20;;;;;;5087208;28;20440;-61
2022/08/04 12:46:07;;;;;;;9.55;3.22;;;35.40;44.10;;;;;;5085054;28;20061;-61
2022/08/04 12:48:35;;;;;;;5.77;3.40;;;36.00;44.00;;;;;;5089760;28;20067;-61
2022/08/04 12:51:02;;;;;;;9.15;3.67;;;36.40;43.40;;;;;;5084521;28;20540;-61
2022/08/04 12:53:36;;;;;;;4.72;2.90;;;36.40;43.30;;;;;;5084664;28;20413;-61
2022/08/04 12:56:03;;;;;;;5.65;2.92;;;36.70;42.60;;;;;;5089974;28;20038;-61
2022/08/04 12:58:35;;;;;;;5.22;3.30;;;36.90;43.20;;;;;;5078796;28;20042;-61
2022/08/04 13:01:06;;;;;;;3.33;2.92;;;36.70;42.50;;;;;;5071421;28;20107;-62
2022/08/04 13:04:09;;;;;;;5.97;3.20;;;36.50;40.90;;;;;;5076222;28;20036;-61
2022/08/04 13:06:36;;;;;;;3.45;3.15;;;36.10;41.30;;;;;;5067505;28;20102;-61
2022/08/04 13:09:08;;;;;;;3.00;2.70;;;35.90;42.80;;;;;;5082255;28;20507;-61
2022/08/04 13:11:40;;;;;;;6.10;2.88;;;36.10;41.70;;;;;;5077637;28;20037;-61
2022/08/04 13:14:08;;;;;;;6.30;3.10;;;36.50;45.80;;;;;;5086642;28;20134;-61
2022/08/04 13:16:35;;;;;;;3.22;2.80;;;36.70;42.80;;;;;;5083887;28;20051;-62
2022/08/04 13:19:02;;;;;;;4.50;3.05;;;37.00;40.60;;;;;;5085758;28;20109;-62
2022/08/04 13:21:29;;;;;;;4.15;3.50;;;37.00;40.60;;;;;;5078844;28;20029;-61
2022/08/04 13:24:02;;;;;;;6.47;3.20;;;36.80;41.40;;;;;;5071895;28;20048;-62
2022/08/04 13:26:29;;;;;;;3.55;3.20;;;36.70;41.40;;;;;;5086008;28;20028;-61
2022/08/04 13:28:59;;;;;;;3.83;3.25;;;36.50;41.20;;;;;;5084980;28;20040;-62
2022/08/04 13:31:27;;;;;;;7.05;3.10;;;36.20;41.40;;;;;;5079185;28;20029;-62
2022/08/04 13:34:01;;;;;;;6.78;3.35;;;36.30;42.30;;;;;;5082497;28;20071;-62
2022/08/04 13:36:29;;;;;;;3.88;3.28;;;36.50;41.40;;;;;;5086427;28;20052;-63
2022/08/04 13:38:58;;;;;;;3.22;2.92;;;36.30;40.10;;;;;;5084483;28;20258;-62
2022/08/04 13:41:27;;;;;;;7.18;3.50;;;36.20;41.40;;;;;;5081531;28;20063;-62
2022/08/04 13:43:58;;;;;;;6.05;3.10;;;36.20;41.00;;;;;;5085725;28;20377;-62
2022/08/04 13:46:31;;;;;;;3.40;2.92;;;35.80;42.40;;;;;;5086116;28;20082;-62
2022/08/04 13:49:00;;;;;;;5.40;2.80;;;35.10;41.80;;;;;;5083411;28;20040;-62
2022/08/04 13:51:29;;;;;;;3.35;3.05;;;34.50;42.10;;;;;;5089130;28;20030;-62
2022/08/04 13:53:56;;;;;;;4.13;3.17;;;34.20;42.40;;;;;;5084249;28;20062;-62